Time;durP1;ratioP1;P1;durP2;ratioP2;P2;SDS_P1;SDS_P2;PMS_P1;PMS_P2;Temp;Humidity;BMP_temperature;BMP_pressure;BME280_temperature;BME280_humidity;BME280_pressure;Samples;Min_cycle;Max_cycle;Signal;HPM_P1;HPM_P2
2023/04/04 00:00:28;;;;;;;3.53;1.27;;;;;;;18.58;31.65;102851.94;4982969;28;20030;-69
2023/04/04 00:02:53;;;;;;;3.47;1.40;;;;;;;18.58;31.68;102857.22;4982959;28;20030;-69
2023/04/04 00:05:19;;;;;;;3.60;1.33;;;;;;;18.55;31.71;102854.75;4992581;28;20049;-69
2023/04/04 00:07:47;;;;;;;3.83;1.35;;;;;;;18.54;31.70;102857.47;4982605;28;20034;-68
2023/04/04 00:10:13;;;;;;;4.55;1.70;;;;;;;18.54;31.63;102854.81;4996222;28;20712;-71
2023/04/04 00:12:39;;;;;;;3.42;1.25;;;;;;;18.55;31.71;102852.09;4987274;28;20458;-68
2023/04/04 00:15:05;;;;;;;4.25;1.55;;;;;;;18.53;31.39;102861.03;4982492;28;20039;-70
2023/04/04 00:17:30;;;;;;;3.42;1.10;;;;;;;18.49;31.52;102860.34;4999607;28;20044;-70
2023/04/04 00:19:56;;;;;;;3.70;1.40;;;;;;;18.48;31.51;102861.25;4984030;28;20039;-69
2023/04/04 00:22:22;;;;;;;4.13;1.35;;;;;;;18.45;31.62;102862.28;4990827;28;20414;-69
2023/04/04 00:24:47;;;;;;;2.78;1.23;;;;;;;18.49;31.37;102869.09;4992149;28;20042;-69
2023/04/04 00:27:13;;;;;;;4.15;1.40;;;;;;;18.46;31.46;102868.41;4987515;28;20029;-69
2023/04/04 00:29:38;;;;;;;2.17;1.10;;;;;;;18.47;31.49;102865.69;4997738;28;20117;-69
2023/04/04 00:32:04;;;;;;;4.50;1.35;;;;;;;18.45;31.22;102867.56;4987656;28;20095;-69
2023/04/04 00:34:29;;;;;;;3.83;1.40;;;;;;;18.46;31.45;102871.03;4992356;28;20073;-71
2023/04/04 00:36:55;;;;;;;3.63;1.30;;;;;;;18.44;31.61;102865.00;4988972;28;20037;-70
2023/04/04 00:39:22;;;;;;;2.95;1.40;;;;;;;18.45;31.35;102864.91;5001584;28;20034;-69
2023/04/04 00:41:48;;;;;;;4.35;1.50;;;;;;;18.42;31.47;102861.56;5001487;28;20113;-71
2023/04/04 00:44:13;;;;;;;3.35;1.27;;;;;;;18.43;31.51;102871.19;5001963;28;20168;-69
2023/04/04 00:46:39;;;;;;;4.90;1.52;;;;;;;18.41;31.33;102863.34;4986856;28;20106;-69
2023/04/04 00:49:05;;;;;;;3.17;1.40;;;;;;;18.40;31.40;102866.91;4982069;28;20403;-71
2023/04/04 00:51:31;;;;;;;3.67;1.60;;;;;;;18.40;31.21;102874.84;5000476;28;20426;-70
2023/04/04 00:53:56;;;;;;;3.75;1.50;;;;;;;18.40;31.56;102879.28;5001537;28;20045;-68
2023/04/04 00:56:22;;;;;;;5.47;1.40;;;;;;;18.39;31.36;102878.44;5000740;28;20041;-69
2023/04/04 00:58:48;;;;;;;2.90;1.27;;;;;;;18.36;31.23;102875.94;4999718;28;20029;-68
2023/04/04 01:01:13;;;;;;;3.10;1.20;;;;;;;18.36;31.42;102873.31;4994877;28;20034;-69
2023/04/04 01:03:39;;;;;;;3.70;1.35;;;;;;;18.36;31.46;102875.06;4987484;28;20132;-69
2023/04/04 01:06:08;;;;;;;4.90;1.60;;;;;;;18.32;31.14;102871.72;4988949;28;20065;-71
2023/04/04 01:08:36;;;;;;;3.97;1.60;;;;;;;18.29;31.12;102866.59;4994263;28;20056;-72
2023/04/04 01:11:02;;;;;;;4.63;1.23;;;;;;;18.30;31.37;102863.03;5001366;28;20033;-70
2023/04/04 01:13:27;;;;;;;2.88;1.20;;;;;;;18.29;31.11;102863.97;4989925;28;20045;-69
2023/04/04 01:15:53;;;;;;;3.28;1.40;;;;;;;18.28;31.25;102865.75;5001317;28;20483;-68
2023/04/04 01:18:21;;;;;;;4.43;1.45;;;;;;;18.30;31.18;102870.97;4987096;28;20169;-69
2023/04/04 01:20:55;;;;;;;3.90;1.60;;;;;;;18.30;31.16;102869.16;4988790;28;21065;-68
2023/04/04 01:23:23;;;;;;;3.30;1.40;;;;;;;18.27;31.32;102850.84;4984703;28;20037;-67
2023/04/04 01:25:48;;;;;;;3.53;1.40;;;;;;;18.31;31.20;102854.22;5000886;28;20630;-68
2023/04/04 01:28:14;;;;;;;3.40;1.30;;;;;;;18.23;31.32;102840.50;4997306;28;20567;-69
2023/04/04 01:30:41;;;;;;;4.80;1.70;;;;;;;18.27;31.09;102840.28;4997066;28;20138;-72
2023/04/04 01:33:19;;;;;;;3.83;1.25;;;;;;;18.25;31.33;102844.81;5001163;28;20037;-68
2023/04/04 01:35:55;;;;;;;3.80;1.50;;;;;;;18.25;31.07;102844.81;5005299;28;20044;-68
2023/04/04 01:38:29;;;;;;;3.53;1.45;;;;;;;18.22;31.04;102839.66;4974301;28;20057;-69
2023/04/04 01:40:59;;;;;;;;;;;;;;;18.26;30.82;102840.38;4980680;28;20085;-68
2023/04/04 01:43:25;;;;;;;3.13;1.30;;;;;;;18.19;31.07;102824.00;5005287;28;19909;-69
2023/04/04 01:45:50;;;;;;;3.58;1.40;;;;;;;18.23;31.17;102838.75;4989568;28;20383;-71
2023/04/04 01:48:15;;;;;;;3.20;1.35;;;;;;;18.21;31.01;102834.47;4987970;28;20065;-69
2023/04/04 01:50:41;;;;;;;4.03;1.55;;;;;;;18.20;31.05;102830.13;4996028;28;20025;-69
2023/04/04 01:53:06;;;;;;;3.38;1.30;;;;;;;18.19;30.97;102834.53;5004963;28;20502;-68
2023/04/04 01:55:32;;;;;;;4.22;1.63;;;;;;;18.17;30.92;102836.41;4993362;28;20490;-70
2023/04/04 01:57:57;;;;;;;5.18;1.80;;;;;;;18.20;30.91;102841.53;4998768;28;20081;-69
2023/04/04 02:00:23;;;;;;;4.40;1.58;;;;;;;18.18;31.02;102835.47;4985071;28;20081;-69
2023/04/04 02:02:48;;;;;;;4.30;1.55;;;;;;;18.17;31.04;102840.84;4985511;28;20074;-69
2023/04/04 02:05:13;;;;;;;2.60;1.25;;;;;;;18.15;31.16;102835.66;4985219;28;20038;-69
2023/04/04 02:07:39;;;;;;;3.35;1.40;;;;;;;18.13;30.88;102832.22;4993259;28;20045;-68
2023/04/04 02:10:05;;;;;;;3.08;1.30;;;;;;;18.13;31.05;102835.72;5004434;28;20100;-70
2023/04/04 02:12:30;;;;;;;4.00;1.35;;;;;;;18.06;31.05;102831.66;4996217;28;20124;-71
2023/04/04 02:14:55;;;;;;;3.53;1.33;;;;;;;18.11;31.06;102842.84;4994954;28;20763;-67
2023/04/04 02:17:20;;;;;;;3.72;1.45;;;;;;;18.11;31.25;102840.19;4990115;28;20030;-69
2023/04/04 02:19:46;;;;;;;3.70;1.30;;;;;;;18.09;31.19;102835.94;4990206;28;20028;-71
2023/04/04 02:22:11;;;;;;;3.35;1.50;;;;;;;18.09;30.93;102843.88;4986455;28;20050;-67
2023/04/04 02:24:37;;;;;;;2.72;1.30;;;;;;;18.08;31.03;102836.88;4984906;28;20037;-69
2023/04/04 02:27:03;;;;;;;4.00;1.40;;;;;;;18.08;30.98;102840.34;4994817;28;20038;-74
2023/04/04 02:29:28;;;;;;;2.75;1.17;;;;;;;18.07;30.94;102837.78;4997415;28;20130;-69
2023/04/04 02:31:53;;;;;;;4.60;1.55;;;;;;;18.04;31.00;102837.94;5001587;28;20108;-72
2023/04/04 02:34:19;;;;;;;4.82;1.45;;;;;;;18.04;30.91;102838.81;4985289;28;20062;-69
2023/04/04 02:36:44;;;;;;;4.07;1.38;;;;;;;18.03;30.91;102855.56;4989473;28;20376;-68
2023/04/04 02:39:09;;;;;;;3.05;1.25;;;;;;;18.03;30.94;102855.56;4979225;28;20120;-70
2023/04/04 02:41:35;;;;;;;4.22;1.35;;;;;;;18.00;31.07;102852.22;4995441;28;20537;-70
2023/04/04 02:44:00;;;;;;;3.55;1.20;;;;;;;18.03;30.68;102852.09;5003434;28;20034;-68
2023/04/04 02:46:25;;;;;;;3.70;1.40;;;;;;;18.03;30.66;102854.72;5002851;28;20386;-69
2023/04/04 02:48:51;;;;;;;3.67;1.33;;;;;;;18.03;30.54;102850.28;4987352;28;20577;-69
2023/04/04 02:51:16;;;;;;;2.57;1.20;;;;;;;18.04;30.82;102852.00;4997747;28;20341;-71
2023/04/04 02:53:42;;;;;;;4.07;1.25;;;;;;;18.02;30.73;102845.09;5003918;28;20267;-71
2023/04/04 02:56:07;;;;;;;4.25;1.30;;;;;;;18.02;30.88;102843.28;4996257;28;20038;-69
2023/04/04 02:58:33;;;;;;;4.05;1.70;;;;;;;17.97;30.77;102837.41;4984637;28;20038;-71
2023/04/04 03:00:58;;;;;;;4.13;1.40;;;;;;;17.98;30.97;102835.63;4994383;28;20593;-69
2023/04/04 03:03:24;;;;;;;3.30;1.50;;;;;;;17.98;30.76;102838.28;4985409;28;20026;-70
2023/04/04 03:05:50;;;;;;;3.25;1.35;;;;;;;17.99;30.63;102837.31;4982867;28;20029;-68
2023/04/04 03:08:16;;;;;;;3.65;1.55;;;;;;;17.97;30.84;102826.00;4992238;28;20041;-71
2023/04/04 03:10:41;;;;;;;3.78;1.33;;;;;;;17.98;30.62;102827.72;4984091;28;20506;-72
2023/04/04 03:13:06;;;;;;;3.80;1.40;;;;;;;17.98;30.69;102835.63;4975392;28;20048;-71
2023/04/04 03:15:32;;;;;;;3.38;1.35;;;;;;;17.98;30.63;102838.28;5003600;28;20042;-69
2023/04/04 03:17:57;;;;;;;3.20;1.40;;;;;;;17.94;30.59;102835.78;5002732;28;20038;-68
2023/04/04 03:20:23;;;;;;;4.63;1.80;;;;;;;17.94;30.64;102841.06;5001332;28;20065;-70
2023/04/04 03:22:48;;;;;;;4.03;1.35;;;;;;;17.94;30.90;102845.47;4980201;28;20168;-69
2023/04/04 03:25:15;;;;;;;4.28;1.50;;;;;;;17.95;30.76;102849.81;4986276;28;20057;-68
2023/04/04 03:27:40;;;;;;;3.03;1.38;;;;;;;17.93;30.84;102851.69;4983411;28;20092;-68
2023/04/04 03:30:07;;;;;;;2.65;1.30;;;;;;;17.92;30.33;102840.25;4983640;28;20038;-69
2023/04/04 03:32:32;;;;;;;5.45;1.55;;;;;;;17.93;30.77;102849.03;4996139;28;20062;-69
2023/04/04 03:34:57;;;;;;;4.05;1.85;;;;;;;17.93;30.38;102841.13;4983569;28;20065;-70
2023/04/04 03:37:23;;;;;;;5.07;1.60;;;;;;;17.92;30.37;102832.34;4983260;28;20431;-70
2023/04/04 03:39:48;;;;;;;3.42;1.50;;;;;;;17.91;30.77;102835.06;4994199;28;20076;-69
2023/04/04 03:42:13;;;;;;;4.05;1.40;;;;;;;17.91;31.04;102829.78;4992641;28;20479;-71
2023/04/04 03:44:40;;;;;;;4.10;1.48;;;;;;;17.89;30.65;102821.09;4993346;28;20386;-68
2023/04/04 03:47:05;;;;;;;3.13;1.30;;;;;;;17.90;30.53;102828.09;4999214;28;20081;-68
2023/04/04 03:49:31;;;;;;;3.78;1.50;;;;;;;17.87;30.30;102820.28;5002632;28;20037;-69
2023/04/04 03:51:57;;;;;;;3.10;1.30;;;;;;;17.87;30.52;102818.50;4992381;28;20088;-70
2023/04/04 03:54:22;;;;;;;3.45;1.33;;;;;;;17.88;30.36;102817.63;5002154;28;20394;-71
2023/04/04 03:56:48;;;;;;;3.03;1.30;;;;;;;17.87;30.57;102813.22;4995269;28;20045;-69
2023/04/04 03:59:13;;;;;;;4.25;1.40;;;;;;;17.86;30.31;102813.28;4983561;28;20046;-71
2023/04/04 04:01:39;;;;;;;3.00;1.20;;;;;;;17.88;30.23;102808.81;4982963;28;20034;-68
2023/04/04 04:04:05;;;;;;;3.70;1.25;;;;;;;17.87;30.39;102809.75;4989229;28;20038;-68
2023/04/04 04:06:30;;;;;;;4.22;1.50;;;;;;;17.85;30.11;102803.66;4985492;28;20128;-71
2023/04/04 04:08:57;;;;;;;3.30;1.30;;;;;;;17.86;30.35;102819.41;4992348;28;20092;-68
2023/04/04 04:11:22;;;;;;;4.53;1.42;;;;;;;17.83;30.19;102814.31;4994383;28;20081;-68
2023/04/04 04:13:48;;;;;;;3.00;1.17;;;;;;;17.86;30.26;102829.13;5002092;28;20402;-67
2023/04/04 04:16:13;;;;;;;3.40;1.55;;;;;;;17.85;30.21;102823.00;4988028;28;20033;-69
2023/04/04 04:18:39;;;;;;;3.40;1.43;;;;;;;17.85;30.04;102824.75;4990354;28;20113;-69
2023/04/04 04:21:04;;;;;;;3.38;1.40;;;;;;;17.84;30.26;102817.81;4994176;28;20295;-71
2023/04/04 04:23:30;;;;;;;3.00;1.23;;;;;;;17.84;30.22;102823.91;4982757;28;20034;-70
2023/04/04 04:25:55;;;;;;;3.55;1.52;;;;;;;17.82;30.14;102819.66;4995757;28;20075;-68
2023/04/04 04:28:22;;;;;;;4.03;1.55;;;;;;;17.82;30.28;102820.50;5001989;28;20041;-70
2023/04/04 04:30:48;;;;;;;4.22;1.40;;;;;;;17.73;30.24;102813.03;4987463;28;20034;-69
2023/04/04 04:33:13;;;;;;;3.40;1.40;;;;;;;17.71;30.52;102812.28;4982449;28;20053;-70
2023/04/04 04:35:38;;;;;;;3.85;1.40;;;;;;;17.70;31.18;102811.41;4995134;28;20048;-69
2023/04/04 04:38:06;;;;;;;2.90;1.30;;;;;;;17.68;31.82;102805.34;4998607;28;20040;-69
2023/04/04 04:40:33;;;;;;;4.82;1.40;;;;;;;17.71;32.21;102807.84;4982680;28;20045;-68
2023/04/04 04:42:58;;;;;;;3.03;1.10;;;;;;;17.71;32.02;102813.13;4985410;28;20053;-67
2023/04/04 04:45:24;;;;;;;2.38;1.10;;;;;;;17.77;31.80;102807.56;4990656;28;20035;-69
2023/04/04 04:47:50;;;;;;;3.28;1.20;;;;;;;17.84;32.13;102818.66;4981590;28;20045;-70
2023/04/04 04:50:15;;;;;;;3.83;1.35;;;;;;;17.89;32.13;102808.75;4999560;28;20069;-69
2023/04/04 04:52:41;;;;;;;3.00;1.17;;;;;;;17.95;32.07;102816.38;5001483;28;20117;-68
2023/04/04 04:55:06;;;;;;;3.00;1.20;;;;;;;17.97;31.79;102813.66;4992516;28;20033;-68
2023/04/04 04:57:33;;;;;;;3.05;1.30;;;;;;;18.05;31.72;102821.19;4989523;28;20513;-69
2023/04/04 04:59:59;;;;;;;3.90;1.63;;;;;;;18.06;32.01;102828.19;4981680;28;20034;-69
2023/04/04 05:02:25;;;;;;;2.28;1.13;;;;;;;18.11;31.67;102834.09;4984298;28;20045;-71
2023/04/04 05:04:50;;;;;;;3.13;1.73;;;;;;;18.16;31.68;102841.78;4997691;28;20030;-72
2023/04/04 05:07:15;;;;;;;2.50;1.15;;;;;;;18.17;31.78;102846.13;4998235;28;20589;-72
2023/04/04 05:09:41;;;;;;;3.65;1.30;;;;;;;18.19;31.82;102852.19;4995428;28;20080;-72
2023/04/04 05:12:07;;;;;;;3.60;1.25;;;;;;;18.21;31.61;102858.22;4997985;28;20040;-70
2023/04/04 05:14:32;;;;;;;3.50;1.33;;;;;;;18.22;31.48;102852.03;4994103;28;20120;-69
2023/04/04 05:16:57;;;;;;;4.07;1.30;;;;;;;18.25;31.65;102843.97;4990923;28;20049;-69
2023/04/04 05:19:23;;;;;;;3.38;1.40;;;;;;;18.25;31.69;102841.31;5001407;28;20073;-69
2023/04/04 05:21:48;;;;;;;2.67;1.20;;;;;;;18.26;31.64;102846.53;4995840;28;20066;-70
2023/04/04 05:24:15;;;;;;;3.67;1.38;;;;;;;18.29;31.49;102840.22;4982103;28;20070;-68
2023/04/04 05:26:41;;;;;;;6.75;1.55;;;;;;;18.29;31.64;102841.09;4988254;28;20030;-69
2023/04/04 05:29:06;;;;;;;3.00;1.40;;;;;;;18.32;31.38;102842.69;4986202;28;20622;-69
2023/04/04 05:31:32;;;;;;;3.55;1.33;;;;;;;18.29;31.64;102845.50;4999844;28;20037;-68
2023/04/04 05:33:57;;;;;;;3.80;1.20;;;;;;;18.34;31.64;102853.19;4996022;28;20111;-70
2023/04/04 05:36:23;;;;;;;3.08;1.17;;;;;;;18.31;31.52;102843.66;5000839;28;20092;-71
2023/04/04 05:38:48;;;;;;;3.65;1.33;;;;;;;18.33;31.47;102836.50;5000739;28;20082;-71
2023/04/04 05:41:13;;;;;;;3.35;1.40;;;;;;;18.34;31.42;102840.84;4993023;28;20415;-70
2023/04/04 05:43:39;;;;;;;3.42;1.30;;;;;;;18.33;31.81;102843.56;4993250;28;20190;-69
2023/04/04 05:46:04;;;;;;;3.67;1.23;;;;;;;18.36;31.47;102852.19;4989776;28;20515;-73
2023/04/04 05:48:30;;;;;;;2.67;1.10;;;;;;;18.35;31.37;102853.09;4988159;28;20080;-69
2023/04/04 05:50:55;;;;;;;3.10;1.23;;;;;;;18.34;31.53;102851.41;4988597;28;20057;-73
2023/04/04 05:53:21;;;;;;;3.70;1.20;;;;;;;18.37;31.46;102858.31;4982370;28;20034;-71
2023/04/04 05:55:46;;;;;;;4.68;1.40;;;;;;;18.39;31.35;102859.06;4982555;28;20047;-70
2023/04/04 05:58:11;;;;;;;3.55;1.27;;;;;;;18.39;31.26;102856.44;4986919;28;20026;-70
2023/04/04 06:00:37;;;;;;;2.53;1.08;;;;;;;18.42;31.52;102867.72;4989769;28;20045;-70
2023/04/04 06:03:03;;;;;;;2.15;1.05;;;;;;;18.44;31.39;102862.34;4983576;28;20150;-69
2023/04/04 06:05:28;;;;;;;3.35;1.15;;;;;;;18.44;31.38;102855.28;4985583;28;20038;-71
2023/04/04 06:07:53;;;;;;;3.60;1.30;;;;;;;18.44;31.31;102857.91;4983425;28;20041;-68
2023/04/04 06:10:19;;;;;;;3.05;1.15;;;;;;;18.45;31.36;102856.13;4985967;28;20264;-69
2023/04/04 06:12:44;;;;;;;3.45;1.30;;;;;;;18.46;31.26;102856.03;4989758;28;20026;-70
2023/04/04 06:15:10;;;;;;;3.97;1.30;;;;;;;18.47;31.34;102860.41;5000310;28;20487;-73
2023/04/04 06:17:35;;;;;;;4.75;1.65;;;;;;;18.45;31.43;102854.38;4988251;28;20034;-72
2023/04/04 06:20:00;;;;;;;4.00;1.60;;;;;;;18.46;31.38;102858.69;4983913;28;20042;-70
2023/04/04 06:22:25;;;;;;;3.13;1.38;;;;;;;18.47;31.27;102860.41;4985418;28;20418;-69
2023/04/04 06:24:51;;;;;;;3.33;1.30;;;;;;;18.51;31.15;102866.38;5000636;28;20084;-69
2023/04/04 06:27:16;;;;;;;3.72;1.60;;;;;;;18.52;31.32;102870.75;4985805;28;20045;-71
2023/04/04 06:29:41;;;;;;;4.30;1.60;;;;;;;18.50;31.33;102869.97;4989254;28;20455;-69
2023/04/04 06:32:07;;;;;;;3.90;1.60;;;;;;;18.54;31.48;102870.66;4982292;28;20034;-69
2023/04/04 06:34:32;;;;;;;4.13;1.55;;;;;;;18.54;31.47;102879.44;4992218;28;20080;-71
2023/04/04 06:36:57;;;;;;;3.03;1.30;;;;;;;18.52;31.96;102872.50;4995696;28;20780;-74
2023/04/04 06:39:22;;;;;;;4.68;1.42;;;;;;;18.52;32.02;102880.41;4992533;28;20036;-70
2023/04/04 06:41:48;;;;;;;3.42;1.40;;;;;;;18.51;31.87;102882.22;5002130;28;20030;-70
2023/04/04 06:44:13;;;;;;;3.75;1.33;;;;;;;18.55;32.02;102880.28;5003791;28;20045;-74
2023/04/04 06:46:38;;;;;;;3.23;1.23;;;;;;;18.48;32.18;102869.19;4993272;28;20030;-71
2023/04/04 06:49:05;;;;;;;3.65;1.33;;;;;;;18.55;32.43;102878.50;5000813;28;20274;-71
2023/04/04 06:51:30;;;;;;;3.55;1.40;;;;;;;18.56;32.36;102876.72;4995264;28;20038;-69
2023/04/04 06:53:55;;;;;;;3.83;1.30;;;;;;;18.55;32.42;102875.88;4998288;28;20038;-70
2023/04/04 06:56:22;;;;;;;4.45;1.23;;;;;;;18.60;32.38;102880.91;4983962;28;20052;-70
2023/04/04 06:58:48;;;;;;;4.00;1.27;;;;;;;18.61;32.70;102886.13;4990131;28;20065;-71
2023/04/04 07:01:13;;;;;;;3.33;1.27;;;;;;;18.66;32.76;102883.25;5002604;28;20465;-70
2023/04/04 07:03:39;;;;;;;4.55;1.67;;;;;;;18.68;32.97;102887.50;4986593;28;20034;-70
2023/04/04 07:06:04;;;;;;;3.80;1.35;;;;;;;18.70;32.96;102884.78;4984227;28;20031;-70
2023/04/04 07:08:32;;;;;;;3.30;1.42;;;;;;;18.70;32.89;102889.22;4985477;28;20430;-73
2023/04/04 07:10:57;;;;;;;4.00;1.50;;;;;;;18.74;32.83;102886.34;5001014;28;20037;-71
2023/04/04 07:13:22;;;;;;;3.88;1.60;;;;;;;18.74;33.03;102883.69;4987465;28;20368;-71
2023/04/04 07:15:48;;;;;;;5.50;1.55;;;;;;;18.78;32.90;102885.22;4989495;28;20042;-70
2023/04/04 07:18:14;;;;;;;3.13;1.30;;;;;;;18.78;32.95;102890.50;4999864;28;20038;-70
2023/04/04 07:20:40;;;;;;;4.00;1.40;;;;;;;18.77;32.87;102882.66;4971878;28;20053;-70
2023/04/04 07:23:05;;;;;;;5.15;1.60;;;;;;;18.76;32.61;102879.19;4996479;28;20058;-71
2023/04/04 07:25:31;;;;;;;4.15;1.77;;;;;;;18.88;32.46;102884.78;4993504;28;20069;-67
2023/04/04 07:27:56;;;;;;;3.95;1.50;;;;;;;18.95;32.20;102880.91;4995959;28;20036;-68
2023/04/04 07:30:26;;;;;;;3.90;1.60;;;;;;;18.99;32.12;102883.31;4988574;28;20069;-72
2023/04/04 07:32:58;;;;;;;5.18;1.45;;;;;;;18.98;32.24;102871.00;4994716;28;20069;-73
2023/04/04 07:35:24;;;;;;;4.05;1.48;;;;;;;19.05;32.20;102879.47;4994074;28;20437;-72
2023/04/04 07:37:49;;;;;;;5.05;1.70;;;;;;;19.05;31.88;102862.75;4992757;28;20038;-71
2023/04/04 07:40:15;;;;;;;6.13;1.45;;;;;;;19.12;31.80;102867.66;5002129;28;20037;-72
2023/04/04 07:42:44;;;;;;;3.75;1.50;;;;;;;19.15;31.76;102861.31;4985473;28;20026;-69
2023/04/04 07:45:10;;;;;;;4.00;1.38;;;;;;;19.21;31.76;102867.13;4995756;28;20045;-71
2023/04/04 07:47:36;;;;;;;6.07;1.48;;;;;;;19.24;31.65;102865.28;4990823;28;20030;-70
2023/04/04 07:50:02;;;;;;;6.20;1.42;;;;;;;19.18;31.94;102863.81;4987842;28;20113;-72
2023/04/04 07:52:28;;;;;;;8.95;2.15;;;;;;;19.24;31.85;102863.47;4987461;28;20537;-70
2023/04/04 07:54:53;;;;;;;3.70;1.40;;;;;;;19.26;31.79;102866.88;4984069;28;20031;-69
2023/04/04 07:57:18;;;;;;;6.97;1.45;;;;;;;19.28;31.63;102861.50;5001774;28;20064;-71
2023/04/04 07:59:44;;;;;;;4.53;1.33;;;;;;;19.28;32.09;102869.44;4994574;28;20072;-69
2023/04/04 08:02:09;;;;;;;5.88;1.48;;;;;;;19.26;31.68;102876.59;4980677;28;20034;-68
2023/04/04 08:04:35;;;;;;;5.82;1.38;;;;;;;19.33;31.60;102873.56;4988491;28;20761;-67
2023/04/04 08:07:00;;;;;;;6.53;1.70;;;;;;;19.38;31.71;102879.44;4989116;28;20026;-69
2023/04/04 08:09:30;;;;;;;3.38;1.42;;;;;;;19.38;31.60;102878.59;4970700;28;20045;-71
2023/04/04 08:11:56;;;;;;;5.10;1.30;;;;;;;19.39;31.46;102867.94;4988619;28;20034;-68
2023/04/04 08:14:21;;;;;;;4.43;1.50;;;;;;;19.42;31.46;102868.69;4984571;28;20034;-68
2023/04/04 08:16:47;;;;;;;4.28;1.10;;;;;;;19.41;31.45;102875.78;4999149;28;20060;-69
2023/04/04 08:19:12;;;;;;;5.82;1.42;;;;;;;19.36;31.19;102883.13;5000594;28;20045;-68
2023/04/04 08:21:37;;;;;;;2.70;1.10;;;;;;;19.37;31.35;102885.66;4988746;28;20054;-71
2023/04/04 08:24:03;;;;;;;5.20;1.40;;;;;;;19.37;31.39;102879.53;4981829;28;20747;-71
2023/04/04 08:26:29;;;;;;;8.02;1.33;;;;;;;19.40;31.25;102885.47;4991967;28;20034;-72
2023/04/04 08:28:56;;;;;;;3.75;1.20;;;;;;;19.41;30.99;102886.34;4995473;28;20053;-71
2023/04/04 08:31:22;;;;;;;3.60;1.20;;;;;;;19.37;31.48;102877.72;4972099;28;20045;-71
2023/04/04 08:33:47;;;;;;;3.80;1.40;;;;;;;19.35;31.48;102879.59;4999502;28;20034;-72
2023/04/04 08:36:12;;;;;;;4.13;1.55;;;;;;;19.38;31.26;102876.78;4993560;28;20041;-71
2023/04/04 08:38:38;;;;;;;9.23;1.52;;;;;;;19.39;31.52;102872.34;4985893;28;20036;-68
2023/04/04 08:41:03;;;;;;;3.72;1.20;;;;;;;19.40;31.12;102874.91;5000731;28;20084;-68
2023/04/04 08:43:33;;;;;;;3.53;1.20;;;;;;;19.36;31.36;102867.25;4990509;28;20034;-67
2023/04/04 08:46:01;;;;;;;3.60;1.20;;;;;;;19.38;31.47;102868.84;4981294;28;20080;-67
2023/04/04 08:48:29;;;;;;;7.35;2.42;;;;;;;19.38;31.40;102870.66;4981754;28;20251;-68
2023/04/04 08:50:58;;;;;;;4.65;1.50;;;;;;;19.36;31.52;102870.75;4995214;28;20029;-67
2023/04/04 08:53:23;;;;;;;3.88;1.30;;;;;;;19.36;31.46;102864.63;5001146;28;20045;-71
2023/04/04 08:55:50;;;;;;;4.82;1.63;;;;;;;19.39;31.51;102861.78;4998439;28;20034;-70
2023/04/04 08:58:16;;;;;;;4.13;1.33;;;;;;;19.37;31.42;102856.56;4982218;28;20042;-70
2023/04/04 09:00:41;;;;;;;4.63;1.38;;;;;;;19.36;31.30;102854.88;5000085;28;20029;-71
2023/04/04 09:03:23;;;;;;;4.95;1.40;;;;;;;19.38;31.54;102860.94;4998845;28;20458;-72
2023/04/04 09:05:48;;;;;;;3.97;1.27;;;;;;;19.34;31.81;102863.81;5001173;28;20045;-71
2023/04/04 09:08:17;;;;;;;3.70;1.38;;;;;;;19.28;31.91;102858.88;4994751;28;20910;-71
2023/04/04 09:10:43;;;;;;;4.43;1.30;;;;;;;19.28;31.91;102861.50;4982626;28;20030;-70
2023/04/04 09:13:09;;;;;;;4.35;1.23;;;;;;;19.27;31.98;102862.47;4990082;28;20586;-71
2023/04/04 09:15:37;;;;;;;3.42;1.10;;;;;;;19.19;31.57;102847.03;5000308;28;20034;-74
2023/04/04 09:18:03;;;;;;;5.20;1.20;;;;;;;19.24;32.05;102857.34;5001145;28;20061;-71
2023/04/04 09:20:42;;;;;;;3.28;1.20;;;;;;;19.20;32.07;102864.56;5000757;28;20443;-68
2023/04/04 09:23:10;;;;;;;4.55;1.17;;;;;;;19.19;31.65;102858.44;5000957;28;20494;-70
2023/04/04 09:25:36;;;;;;;8.35;1.75;;;;;;;19.18;31.88;102859.38;5000969;28;20669;-68
2023/04/04 09:28:04;;;;;;;2.92;1.10;;;;;;;19.20;31.70;102861.91;5001103;28;20026;-69
2023/04/04 09:30:33;;;;;;;3.47;0.98;;;;;;;19.18;31.62;102863.81;4983152;28;20074;-70
2023/04/04 09:33:03;;;;;;;3.67;1.25;;;;;;;19.14;31.91;102857.00;4982070;28;20038;-69
2023/04/04 09:35:32;;;;;;;5.50;1.50;;;;;;;19.13;32.09;102858.75;4981540;28;20081;-69
2023/04/04 09:37:57;;;;;;;6.88;1.30;;;;;;;19.13;32.18;102858.75;4986658;28;20719;-69
2023/04/04 09:40:25;;;;;;;4.95;1.15;;;;;;;19.09;32.02;102853.72;4992339;28;20502;-69
2023/04/04 09:42:53;;;;;;;6.03;1.35;;;;;;;19.10;32.07;102856.28;4970570;28;20040;-75
2023/04/04 09:45:19;;;;;;;3.05;1.10;;;;;;;19.10;32.17;102850.16;4970185;28;20034;-72
2023/04/04 09:47:44;;;;;;;6.10;1.27;;;;;;;19.10;32.26;102855.44;4981215;28;20039;-72
2023/04/04 09:50:20;;;;;;;3.87;1.07;;;;;;;19.08;32.22;102852.03;4981458;28;21211;-72
2023/04/04 09:52:47;;;;;;;9.23;1.13;;;;;;;19.09;32.21;102848.44;4981441;28;20324;-73
2023/04/04 09:55:13;;;;;;;3.67;1.40;;;;;;;19.09;32.07;102848.44;4988302;28;20042;-73
2023/04/04 09:57:40;;;;;;;3.45;1.35;;;;;;;19.07;32.01;102840.59;4994527;28;20042;-71
2023/04/04 10:00:10;;;;;;;4.60;1.50;;;;;;;19.09;32.21;102845.78;4993795;28;20093;-71
2023/04/04 10:02:45;;;;;;;3.15;1.20;;;;;;;19.05;32.05;102839.81;4995527;28;20077;-72
2023/04/04 10:05:11;;;;;;;3.90;1.27;;;;;;;19.06;32.62;102838.91;4999047;28;20557;-76
2023/04/04 10:07:38;;;;;;;3.17;1.20;;;;;;;19.06;32.39;102846.81;5000840;28;20035;-70
2023/04/04 10:10:10;;;;;;;2.03;0.90;;;;;;;19.05;32.25;102838.97;5004537;28;20068;-69
2023/04/04 10:12:36;;;;;;;4.25;1.00;;;;;;;19.04;32.43;102840.75;4994611;28;20041;-69
2023/04/04 10:15:02;;;;;;;5.38;1.10;;;;;;;19.05;32.26;102834.53;5000805;28;20121;-71
2023/04/04 10:17:36;;;;;;;5.18;1.30;;;;;;;19.02;32.42;102830.25;4995710;28;20117;-71
2023/04/04 10:20:07;;;;;;;3.92;1.10;;;;;;;19.04;32.73;102830.19;5003466;28;20104;-72
2023/04/04 10:22:34;;;;;;;6.32;1.20;;;;;;;19.06;32.74;102830.97;5001891;28;20033;-71
2023/04/04 10:25:00;;;;;;;3.53;1.08;;;;;;;19.11;32.41;102831.56;4993741;28;20026;-69
2023/04/04 10:27:26;;;;;;;4.72;1.88;;;;;;;19.15;32.31;102826.97;4984902;28;20040;-69
2023/04/04 10:29:51;;;;;;;6.85;1.30;;;;;;;19.14;32.25;102836.69;5001008;28;20042;-68
2023/04/04 10:32:26;;;;;;;4.82;1.20;;;;;;;19.09;32.67;102832.56;4988516;28;20052;-67
2023/04/04 10:35:02;;;;;;;4.95;1.00;;;;;;;19.07;32.68;102834.47;4986692;28;20070;-67
2023/04/04 10:37:44;;;;;;;2.40;1.05;;;;;;;19.08;32.72;102820.31;4998147;28;20037;-71
2023/04/04 10:40:15;;;;;;;3.60;1.15;;;;;;;19.08;32.55;102823.81;4987254;28;20049;-76
2023/04/04 10:42:43;;;;;;;4.80;1.35;;;;;;;19.10;32.83;102823.72;4988181;28;20390;-75
2023/04/04 10:45:11;;;;;;;4.43;1.30;;;;;;;19.11;32.72;102821.00;4979304;28;20034;-73
2023/04/04 10:47:38;;;;;;;6.53;1.23;;;;;;;19.09;32.70;102817.59;5004628;28;20966;-71
2023/04/04 10:50:06;;;;;;;4.80;1.30;;;;;;;19.12;32.78;102811.28;4986990;28;20030;-69
2023/04/04 10:52:32;;;;;;;4.72;2.33;;;;;;;19.11;32.74;102804.31;4999384;28;20125;-70
2023/04/04 10:55:01;;;;;;;4.15;1.20;;;;;;;19.09;32.57;102817.59;4985258;28;20530;-70
2023/04/04 10:57:27;;;;;;;2.35;0.98;;;;;;;19.11;32.77;102806.94;4999431;28;20088;-69
2023/04/04 11:00:05;;;;;;;4.32;1.15;;;;;;;19.08;33.08;102799.19;5003399;28;20030;-70
2023/04/04 11:02:47;;;;;;;2.80;1.00;;;;;;;19.07;32.94;102800.09;4992301;28;20037;-71
2023/04/04 11:05:25;;;;;;;4.25;1.20;;;;;;;19.08;33.13;102802.66;4987734;28;20034;-71
2023/04/04 11:07:56;;;;;;;5.07;1.17;;;;;;;19.06;32.95;102801.91;5001702;28;20041;-70
2023/04/04 11:10:28;;;;;;;2.55;1.00;;;;;;;19.02;32.97;102790.63;5001586;28;20025;-70
2023/04/04 11:12:55;;;;;;;4.43;1.00;;;;;;;19.08;32.69;102799.19;4983966;28;20064;-71
2023/04/04 11:15:22;;;;;;;3.50;1.10;;;;;;;19.05;32.59;102792.25;4997594;28;20034;-69
2023/04/04 11:17:47;;;;;;;3.92;1.17;;;;;;;19.07;32.60;102792.19;5003127;28;20099;-70
2023/04/04 11:20:18;;;;;;;3.30;0.90;;;;;;;19.03;32.86;102784.41;5000584;28;20450;-70